createdAt,value
2022-11-07T00:01:47.159Z,2.90
2022-11-07T00:04:15.186Z,2.80
2022-11-07T00:06:42.644Z,2.80
2022-11-07T00:09:10.111Z,2.90
2022-11-07T00:11:37.367Z,2.90
2022-11-07T00:14:04.597Z,2.90
2022-11-07T00:16:32.772Z,2.80
2022-11-07T00:19:00.119Z,2.80
2022-11-07T00:21:27.345Z,2.90
2022-11-07T00:23:54.654Z,2.90
2022-11-07T00:26:22.250Z,3.00
2022-11-07T00:28:52.710Z,2.90
2022-11-07T00:31:20.019Z,2.90
2022-11-07T00:33:47.464Z,2.90
2022-11-07T00:36:29.072Z,2.90
2022-11-07T00:38:56.662Z,2.80
2022-11-07T00:41:24.481Z,2.80
2022-11-07T00:43:52.274Z,2.80
2022-11-07T00:46:20.275Z,2.80
2022-11-07T00:48:48.455Z,2.80
2022-11-07T00:51:18.554Z,2.80
2022-11-07T00:53:46.669Z,2.80
2022-11-07T00:56:17.964Z,2.80
2022-11-07T00:58:45.643Z,2.70
2022-11-07T01:01:22.577Z,2.70
2022-11-07T01:04:08.850Z,2.70
2022-11-07T01:06:38.672Z,2.70
2022-11-07T01:09:14.374Z,2.60
2022-11-07T01:11:42.163Z,2.60
2022-11-07T01:14:10.744Z,2.60
2022-11-07T01:16:39.128Z,2.60
2022-11-07T01:19:08.301Z,2.60
2022-11-07T01:21:38.576Z,2.60
2022-11-07T01:24:07.363Z,2.60
2022-11-07T01:26:34.856Z,2.50
2022-11-07T01:29:02.075Z,2.60
2022-11-07T01:31:31.539Z,2.50
2022-11-07T01:34:00.201Z,2.60
2022-11-07T01:36:28.341Z,2.60
2022-11-07T01:38:55.924Z,2.50
2022-11-07T01:41:27.388Z,2.50
2022-11-07T01:44:23.403Z,2.50
2022-11-07T01:46:51.309Z,2.50
2022-11-07T01:49:28.464Z,2.50
2022-11-07T01:52:20.047Z,2.60
2022-11-07T01:55:16.695Z,2.60
2022-11-07T01:57:52.251Z,2.60
2022-11-07T02:00:21.817Z,2.60
2022-11-07T02:02:55.922Z,2.60
2022-11-07T02:05:31.438Z,2.50
2022-11-07T02:08:00.306Z,2.50
2022-11-07T02:10:29.248Z,2.50
2022-11-07T02:12:58.454Z,2.50
2022-11-07T02:15:26.608Z,2.50
2022-11-07T02:17:55.314Z,2.40
2022-11-07T02:20:22.569Z,2.40
2022-11-07T02:22:57.669Z,2.50
2022-11-07T02:25:25.008Z,2.50
2022-11-07T02:27:57.322Z,2.50
2022-11-07T02:30:28.345Z,2.50
2022-11-07T02:32:56.026Z,2.50
2022-11-07T02:35:45.769Z,2.50
2022-11-07T02:38:23.640Z,2.50
2022-11-07T02:41:13.489Z,2.40
2022-11-07T02:43:46.351Z,2.40
2022-11-07T02:46:14.747Z,2.50
2022-11-07T02:48:54.988Z,2.40
2022-11-07T02:51:22.365Z,2.40
2022-11-07T02:53:49.738Z,2.40
2022-11-07T02:56:17.474Z,2.40
2022-11-07T02:58:45.037Z,2.40
2022-11-07T03:01:13.187Z,2.50
2022-11-07T03:03:43.758Z,2.60
2022-11-07T03:06:14.442Z,2.70
2022-11-07T03:08:43.379Z,2.70
2022-11-07T03:11:12.182Z,2.60
2022-11-07T03:13:40.104Z,2.60
2022-11-07T03:16:09.537Z,2.60
2022-11-07T03:18:37.215Z,2.60
2022-11-07T03:21:05.454Z,2.60
2022-11-07T03:23:34.008Z,2.60
2022-11-07T03:26:01.455Z,2.60
2022-11-07T03:28:28.664Z,2.60
2022-11-07T03:30:56.424Z,2.60
2022-11-07T03:33:23.862Z,2.60
2022-11-07T03:35:51.281Z,2.70
2022-11-07T03:38:18.549Z,2.70
2022-11-07T03:40:47.130Z,2.70
2022-11-07T03:43:15.114Z,2.70
2022-11-07T03:45:42.792Z,2.80
2022-11-07T03:48:10.011Z,2.80
2022-11-07T03:50:37.369Z,2.80
2022-11-07T03:53:04.620Z,2.80
2022-11-07T03:55:31.893Z,2.90
2022-11-07T03:57:59.236Z,2.90
2022-11-07T04:00:26.594Z,2.90
2022-11-07T04:02:54.333Z,2.90
2022-11-07T04:05:22.018Z,3.00
2022-11-07T04:07:49.245Z,3.00
2022-11-07T04:10:16.917Z,3.10
2022-11-07T04:13:03.281Z,3.10
2022-11-07T04:15:49.144Z,3.00
2022-11-07T04:18:16.671Z,3.10
2022-11-07T04:20:44.688Z,3.20
2022-11-07T04:23:12.449Z,3.10
2022-11-07T04:25:58.327Z,3.20
2022-11-07T04:28:25.877Z,3.20
2022-11-07T04:30:53.309Z,3.10
2022-11-07T04:33:23.825Z,3.00
2022-11-07T04:35:51.107Z,3.20
2022-11-07T04:38:18.481Z,3.10
2022-11-07T04:40:46.412Z,3.10
2022-11-07T04:43:13.878Z,3.10
2022-11-07T04:45:42.122Z,3.10
2022-11-07T04:48:11.148Z,3.10
2022-11-07T04:50:38.943Z,3.10
2022-11-07T04:53:06.588Z,3.10
2022-11-07T04:55:37.629Z,3.10
2022-11-07T04:58:05.195Z,3.10
2022-11-07T05:00:32.559Z,3.20
2022-11-07T05:02:59.936Z,3.20
2022-11-07T05:05:27.658Z,3.20
2022-11-07T05:07:54.994Z,3.20
2022-11-07T05:10:28.157Z,3.40
2022-11-07T05:12:58.835Z,3.60
2022-11-07T05:15:26.089Z,3.60
2022-11-07T05:17:53.637Z,3.60
2022-11-07T05:20:28.689Z,3.50
2022-11-07T05:23:16.006Z,3.50
2022-11-07T05:25:45.911Z,3.40
2022-11-07T05:28:16.209Z,3.40
2022-11-07T05:30:45.212Z,3.50
2022-11-07T05:33:15.921Z,3.50
2022-11-07T05:35:44.191Z,3.50
2022-11-07T05:38:12.043Z,3.70
2022-11-07T05:40:40.660Z,4.00
2022-11-07T05:43:10.897Z,4.00
2022-11-07T05:45:38.817Z,3.90
2022-11-07T05:48:10.428Z,3.80
2022-11-07T05:50:38.189Z,3.70
2022-11-07T05:53:07.886Z,3.60
2022-11-07T05:55:35.357Z,3.60
2022-11-07T05:58:09.062Z,3.60
2022-11-07T06:00:36.441Z,3.60
2022-11-07T06:03:04.070Z,3.70
2022-11-07T06:05:31.486Z,3.70
2022-11-07T06:07:58.790Z,3.90
2022-11-07T06:10:26.448Z,4.10
2022-11-07T06:13:02.200Z,4.30
2022-11-07T06:15:32.907Z,4.50
2022-11-07T06:18:02.101Z,4.50
2022-11-07T06:20:30.184Z,4.60
2022-11-07T06:23:00.116Z,4.70
2022-11-07T06:25:29.635Z,4.90
2022-11-07T06:28:01.985Z,5.00
2022-11-07T06:30:29.543Z,5.00
2022-11-07T06:33:00.291Z,5.00
2022-11-07T06:35:27.713Z,5.00
2022-11-07T06:37:54.985Z,5.00
2022-11-07T06:40:22.337Z,5.10
2022-11-07T06:42:49.619Z,5.10
2022-11-07T06:45:17.498Z,5.20
2022-11-07T06:47:44.819Z,5.30
2022-11-07T06:50:12.079Z,5.30
2022-11-07T06:52:39.335Z,5.30
2022-11-07T06:55:07.414Z,5.40
2022-11-07T06:57:34.846Z,5.50
2022-11-07T07:00:05.686Z,5.60
2022-11-07T07:03:00.862Z,5.60
2022-11-07T07:05:21.444Z,5.60
2022-11-07T07:07:49.252Z,5.70
2022-11-07T07:10:16.566Z,5.80
2022-11-07T07:12:44.808Z,5.90
2022-11-07T07:15:12.095Z,6.00
2022-11-07T07:17:39.495Z,6.10
2022-11-07T07:20:07.238Z,6.20
2022-11-07T07:22:34.736Z,6.40
2022-11-07T07:25:01.936Z,6.40
2022-11-07T07:27:29.163Z,6.50
2022-11-07T07:29:56.878Z,6.60
2022-11-07T07:32:27.256Z,6.70
2022-11-07T07:34:55.076Z,6.80
2022-11-07T07:37:22.304Z,6.90
2022-11-07T07:39:49.732Z,6.90
2022-11-07T07:42:17.359Z,6.90
2022-11-07T07:44:44.755Z,6.90
2022-11-07T07:47:12.123Z,7.00
2022-11-07T07:49:39.485Z,7.10
2022-11-07T07:52:07.041Z,7.10
2022-11-07T07:54:34.239Z,7.30
2022-11-07T07:57:01.943Z,7.30
2022-11-07T07:59:29.186Z,7.40
2022-11-07T08:01:57.333Z,7.40
2022-11-07T08:04:25.012Z,7.50
2022-11-07T08:06:52.286Z,7.50
2022-11-07T08:09:19.537Z,7.70
2022-11-07T08:11:46.915Z,7.80
2022-11-07T08:14:14.532Z,7.90
2022-11-07T08:16:41.817Z,8.10
2022-11-07T08:19:09.488Z,8.30
2022-11-07T08:21:36.749Z,8.40
2022-11-07T08:24:04.450Z,8.60
2022-11-07T08:26:31.844Z,8.60
2022-11-07T08:28:59.169Z,8.80
2022-11-07T08:31:26.448Z,8.80
2022-11-07T08:33:53.733Z,8.80
2022-11-07T08:36:21.273Z,8.80
2022-11-07T08:38:49.325Z,8.80
2022-11-07T08:41:21.984Z,8.90
2022-11-07T08:43:49.950Z,9.60
2022-11-07T08:46:20.298Z,10.30
2022-11-07T08:48:47.692Z,11.00
2022-11-07T08:51:14.963Z,10.90
2022-11-07T08:53:42.231Z,11.00
2022-11-07T08:56:10.565Z,11.30
2022-11-07T08:58:37.863Z,11.70
2022-11-07T09:01:09.382Z,12.20
2022-11-07T09:03:50.421Z,12.70
2022-11-07T09:06:20.598Z,13.00
2022-11-07T09:08:47.906Z,13.30
2022-11-07T09:11:19.403Z,13.60
2022-11-07T09:13:49.966Z,13.80
2022-11-07T09:16:20.654Z,13.70
2022-11-07T09:18:50.215Z,13.50
2022-11-07T09:21:22.425Z,13.00
2022-11-07T09:23:51.481Z,12.60
2022-11-07T09:26:19.213Z,12.40
2022-11-07T09:28:51.097Z,13.20
2022-11-07T09:31:19.657Z,14.50
2022-11-07T09:33:46.851Z,14.80
2022-11-07T09:36:14.842Z,14.20
2022-11-07T09:38:42.142Z,13.60
2022-11-07T09:41:32.918Z,13.10
2022-11-07T09:44:07.168Z,12.80
2022-11-07T09:46:53.017Z,12.40
2022-11-07T09:49:35.273Z,12.20
2022-11-07T09:52:17.793Z,12.20
2022-11-07T09:54:56.237Z,12.10
2022-11-07T09:57:24.521Z,12.70
2022-11-07T09:59:56.162Z,14.30
2022-11-07T10:02:31.109Z,15.70
2022-11-07T10:05:01.975Z,17.00
2022-11-07T10:07:47.788Z,17.60
2022-11-07T10:10:32.985Z,18.10
2022-11-07T10:13:29.022Z,17.30
2022-11-07T10:16:22.917Z,16.20
2022-11-07T10:19:31.801Z,15.30
2022-11-07T10:22:22.819Z,15.00
2022-11-07T10:25:19.211Z,14.90
2022-11-07T10:27:52.561Z,14.30
2022-11-07T10:30:21.785Z,14.10
2022-11-07T10:33:06.503Z,14.30
2022-11-07T10:35:41.674Z,14.20
2022-11-07T10:38:25.439Z,14.20
2022-11-07T10:40:53.910Z,14.30
2022-11-07T10:43:36.733Z,14.40
2022-11-07T10:46:44.032Z,14.20
2022-11-07T10:49:29.440Z,14.10
2022-11-07T10:52:14.927Z,14.00
2022-11-07T10:54:43.701Z,13.90
2022-11-07T10:57:16.700Z,13.60
2022-11-07T10:59:53.069Z,13.50
2022-11-07T11:02:22.108Z,13.30
2022-11-07T11:04:54.271Z,13.30
2022-11-07T11:07:28.333Z,13.40
2022-11-07T11:09:58.401Z,13.30
2022-11-07T11:12:28.791Z,13.20
2022-11-07T11:15:16.657Z,13.20
2022-11-07T11:17:45.744Z,13.30
2022-11-07T11:20:39.329Z,13.30
2022-11-07T11:23:16.014Z,13.50
2022-11-07T11:25:46.034Z,13.60
2022-11-07T11:28:24.707Z,13.80
2022-11-07T11:30:59.352Z,13.80
2022-11-07T11:33:35.799Z,13.80
2022-11-07T11:36:15.262Z,13.70
2022-11-07T11:38:46.272Z,13.80
2022-11-07T11:41:28.592Z,14.20
2022-11-07T11:44:19.783Z,14.50
2022-11-07T11:46:58.822Z,14.20
2022-11-07T11:49:32.796Z,14.20
2022-11-07T11:52:07.739Z,14.20
2022-11-07T11:54:35.403Z,14.40
2022-11-07T11:57:27.033Z,14.30
2022-11-07T12:00:13.049Z,13.90
2022-11-07T12:02:50.674Z,13.70
2022-11-07T12:05:45.507Z,13.50
2022-11-07T12:08:21.067Z,13.70
2022-11-07T12:11:30.704Z,13.80
2022-11-07T12:14:22.117Z,14.00
2022-11-07T12:17:04.244Z,14.10
2022-11-07T12:19:41.918Z,14.00
2022-11-07T12:22:31.054Z,14.00
2022-11-07T12:25:21.747Z,13.90
2022-11-07T12:28:12.720Z,14.20
2022-11-07T12:30:57.560Z,16.00
2022-11-07T12:33:32.380Z,17.00
2022-11-07T12:36:16.656Z,18.00
2022-11-07T12:39:02.015Z,18.30
2022-11-07T12:41:37.865Z,18.60
2022-11-07T12:44:35.116Z,18.50
2022-11-07T12:47:10.219Z,18.40
2022-11-07T12:50:26.455Z,18.20
2022-11-07T12:53:27.319Z,18.00
2022-11-07T12:56:17.954Z,18.80
2022-11-07T12:58:47.649Z,18.90
2022-11-07T13:01:19.282Z,17.80
2022-11-07T13:04:16.612Z,17.10
2022-11-07T13:07:14.007Z,17.40
2022-11-07T13:10:10.391Z,17.50
2022-11-07T13:13:00.880Z,17.50
2022-11-07T13:15:31.872Z,18.20
2022-11-07T13:18:29.873Z,18.40
2022-11-07T13:21:05.174Z,18.20
2022-11-07T13:23:33.204Z,18.70
2022-11-07T13:26:25.920Z,19.10
2022-11-07T13:29:02.432Z,18.90
2022-11-07T13:31:38.141Z,18.60
2022-11-07T13:34:18.136Z,18.30
2022-11-07T13:36:47.980Z,17.90
2022-11-07T13:39:16.266Z,17.70
2022-11-07T13:41:47.731Z,17.60
2022-11-07T13:44:31.999Z,17.20
2022-11-07T13:47:05.490Z,16.20
2022-11-07T13:49:44.752Z,15.70
2022-11-07T13:52:20.527Z,15.30
2022-11-07T13:55:17.989Z,15.10
2022-11-07T13:57:52.524Z,15.00
2022-11-07T14:00:23.276Z,15.10
2022-11-07T14:02:56.492Z,15.30
2022-11-07T14:05:27.512Z,15.40
2022-11-07T14:08:00.776Z,15.20
2022-11-07T14:10:39.212Z,14.90
2022-11-07T14:13:07.682Z,14.60
2022-11-07T14:15:37.987Z,14.20
2022-11-07T14:18:06.427Z,13.90
2022-11-07T14:20:36.833Z,13.70
2022-11-07T14:23:04.226Z,13.50
2022-11-07T14:25:34.279Z,13.40
2022-11-07T14:28:02.601Z,13.30
2022-11-07T14:30:32.143Z,13.20
2022-11-07T14:33:01.881Z,13.10
2022-11-07T14:35:30.727Z,12.90
2022-11-07T14:37:59.094Z,12.80
2022-11-07T14:40:27.358Z,12.70
2022-11-07T14:42:55.199Z,12.60
2022-11-07T14:45:56.614Z,12.50
2022-11-07T14:48:15.512Z,12.40
2022-11-07T14:50:45.059Z,12.20
2022-11-07T14:53:24.666Z,12.10
2022-11-07T14:55:59.006Z,12.00
2022-11-07T14:58:30.567Z,11.80
2022-11-07T15:01:13.781Z,11.70
2022-11-07T15:04:15.392Z,11.60
2022-11-07T15:06:45.173Z,11.60
2022-11-07T15:09:13.149Z,11.50
2022-11-07T15:11:44.309Z,11.40
2022-11-07T15:14:26.443Z,11.40
2022-11-07T15:16:54.754Z,11.30
2022-11-07T15:19:23.963Z,11.30
2022-11-07T15:22:30.272Z,11.20
2022-11-07T15:24:58.103Z,11.10
2022-11-07T15:27:33.790Z,11.10
2022-11-07T15:30:02.762Z,11.00
2022-11-07T15:32:37.355Z,11.00
2022-11-07T15:35:43.446Z,10.90
2022-11-07T15:38:03.023Z,10.90
2022-11-07T15:40:31.172Z,10.80
2022-11-07T15:42:58.413Z,10.70
2022-11-07T15:45:25.871Z,10.70
2022-11-07T15:47:53.192Z,10.70
2022-11-07T15:50:25.188Z,10.60
2022-11-07T15:52:54.151Z,10.50
2022-11-07T15:55:23.905Z,10.30
2022-11-07T15:57:54.047Z,10.20
2022-11-07T16:00:25.353Z,10.10
2022-11-07T16:02:54.775Z,10.00
2022-11-07T16:05:22.371Z,9.90
2022-11-07T16:07:50.202Z,9.90
2022-11-07T16:10:26.256Z,9.80
2022-11-07T16:12:54.526Z,9.70
2022-11-07T16:15:26.317Z,9.70
2022-11-07T16:17:53.618Z,9.70
2022-11-07T16:20:23.490Z,9.70
2022-11-07T16:22:52.464Z,9.60
2022-11-07T16:25:24.465Z,9.60
2022-11-07T16:27:59.956Z,9.60
2022-11-07T16:30:31.918Z,9.60
2022-11-07T16:33:02.578Z,9.40
2022-11-07T16:35:29.896Z,9.40
2022-11-07T16:38:01.914Z,9.40
2022-11-07T16:40:29.649Z,9.40
2022-11-07T16:43:00.485Z,9.40
2022-11-07T16:45:27.817Z,9.40
2022-11-07T16:47:55.442Z,9.30
2022-11-07T16:50:22.764Z,9.30
2022-11-07T16:52:49.981Z,9.30
2022-11-07T16:55:19.545Z,9.30
2022-11-07T16:57:48.072Z,9.30
2022-11-07T17:00:23.804Z,9.20
2022-11-07T17:02:51.540Z,9.20
2022-11-07T17:05:19.300Z,9.10
2022-11-07T17:07:46.676Z,9.10
2022-11-07T17:10:17.403Z,9.00
2022-11-07T17:12:44.670Z,9.10
2022-11-07T17:15:12.097Z,9.10
2022-11-07T17:17:40.495Z,9.00
2022-11-07T17:20:34.340Z,9.00
2022-11-07T17:23:07.990Z,8.90
2022-11-07T17:25:37.282Z,8.90
2022-11-07T17:28:05.089Z,8.80
2022-11-07T17:30:34.104Z,8.80
2022-11-07T17:33:03.904Z,8.70
2022-11-07T17:35:33.252Z,8.70
2022-11-07T17:38:01.666Z,8.70
2022-11-07T17:40:33.860Z,8.70
2022-11-07T17:43:01.933Z,8.70
2022-11-07T17:45:32.517Z,8.60
2022-11-07T17:47:59.954Z,8.60
2022-11-07T17:50:27.472Z,8.70
2022-11-07T17:52:57.856Z,8.60
2022-11-07T17:55:26.071Z,8.60
2022-11-07T17:57:53.814Z,8.60
2022-11-07T18:00:24.096Z,8.60
2022-11-07T18:02:53.019Z,8.50
2022-11-07T18:05:22.838Z,8.50
2022-11-07T18:07:50.354Z,8.40
2022-11-07T18:10:18.433Z,8.30
2022-11-07T18:12:49.032Z,8.30
2022-11-07T18:15:16.808Z,8.30
2022-11-07T18:17:44.360Z,8.30
2022-11-07T18:20:11.965Z,8.20
2022-11-07T18:22:43.405Z,8.20
2022-11-07T18:25:10.800Z,8.10
2022-11-07T18:27:38.301Z,8.10
2022-11-07T18:30:07.055Z,8.00
2022-11-07T18:32:36.388Z,7.90
2022-11-07T18:35:06.415Z,7.90
2022-11-07T18:37:34.577Z,7.90
2022-11-07T18:40:01.811Z,7.90
2022-11-07T18:42:29.578Z,7.90
2022-11-07T18:44:56.946Z,7.90
2022-11-07T18:47:24.277Z,7.90
2022-11-07T18:49:56.826Z,7.90
2022-11-07T18:52:24.545Z,7.90
2022-11-07T18:54:52.423Z,7.90
2022-11-07T18:57:19.657Z,7.80
2022-11-07T18:59:47.381Z,7.80
2022-11-07T19:02:15.954Z,7.80
2022-11-07T19:04:46.972Z,7.70
2022-11-07T19:07:14.357Z,7.60
2022-11-07T19:09:41.699Z,7.70
2022-11-07T19:12:08.923Z,7.60
2022-11-07T19:14:36.369Z,7.60
2022-11-07T19:17:05.153Z,7.60
2022-11-07T19:19:32.632Z,7.50
2022-11-07T19:22:00.027Z,7.40
2022-11-07T19:24:27.269Z,7.40
2022-11-07T19:26:54.511Z,7.30
2022-11-07T19:29:22.109Z,7.40
2022-11-07T19:31:49.467Z,7.40
2022-11-07T19:34:18.336Z,7.30
2022-11-07T19:36:48.493Z,7.20
2022-11-07T19:39:15.846Z,7.10
2022-11-07T19:41:45.702Z,7.10
2022-11-07T19:44:12.981Z,7.10
2022-11-07T19:46:40.709Z,7.10
2022-11-07T19:49:07.980Z,7.10
2022-11-07T19:51:36.527Z,7.20
2022-11-07T19:54:04.695Z,7.20
2022-11-07T19:56:32.747Z,7.20
2022-11-07T19:59:01.702Z,7.20
2022-11-07T20:01:32.287Z,7.30
2022-11-07T20:03:59.995Z,7.20
2022-11-07T20:06:32.773Z,7.20
2022-11-07T20:09:06.430Z,7.30
2022-11-07T20:11:33.962Z,7.30
2022-11-07T20:14:03.783Z,7.30
2022-11-07T20:16:35.111Z,7.30
2022-11-07T20:19:02.642Z,7.30
2022-11-07T20:21:31.023Z,7.30
2022-11-07T20:24:00.015Z,7.20
2022-11-07T20:26:29.437Z,7.10
2022-11-07T20:28:56.740Z,7.10
2022-11-07T20:31:29.302Z,7.10
2022-11-07T20:34:01.338Z,7.10
2022-11-07T20:36:29.099Z,7.00
2022-11-07T20:38:56.560Z,6.90
2022-11-07T20:41:24.687Z,6.90
2022-11-07T20:44:04.305Z,6.90
2022-11-07T20:46:33.920Z,6.90
2022-11-07T20:49:05.724Z,6.90
2022-11-07T20:51:33.082Z,6.90
2022-11-07T20:54:00.485Z,6.80
2022-11-07T20:56:29.530Z,6.80
2022-11-07T20:59:00.745Z,6.70
2022-11-07T21:01:36.407Z,6.60
2022-11-07T21:04:09.158Z,6.50
2022-11-07T21:06:37.110Z,6.40
2022-11-07T21:09:05.425Z,6.40
2022-11-07T21:11:33.313Z,6.30
2022-11-07T21:14:01.284Z,6.30
2022-11-07T21:16:29.107Z,6.30
2022-11-07T21:18:57.132Z,6.30
2022-11-07T21:21:27.765Z,6.30
2022-11-07T21:23:57.725Z,6.20
2022-11-07T21:26:33.992Z,6.20
2022-11-07T21:29:07.773Z,6.10
2022-11-07T21:31:37.223Z,6.10
2022-11-07T21:34:06.823Z,6.20
2022-11-07T21:36:34.173Z,6.10
2022-11-07T21:39:02.249Z,6.10
2022-11-07T21:41:30.832Z,6.00
2022-11-07T21:43:58.815Z,6.00
2022-11-07T21:46:31.538Z,5.90
2022-11-07T21:48:59.504Z,5.90
2022-11-07T21:51:29.760Z,5.90
2022-11-07T21:53:58.573Z,5.80
2022-11-07T21:56:31.605Z,5.70
2022-11-07T21:59:07.325Z,5.70
2022-11-07T22:01:37.276Z,5.70
2022-11-07T22:04:14.342Z,5.70
2022-11-07T22:06:44.411Z,5.70
2022-11-07T22:09:15.394Z,5.60
2022-11-07T22:11:43.121Z,5.70
2022-11-07T22:14:18.473Z,5.70
2022-11-07T22:16:46.249Z,5.70
2022-11-07T22:19:14.388Z,5.70
2022-11-07T22:21:41.958Z,5.70
2022-11-07T22:24:10.127Z,5.60
2022-11-07T22:26:37.606Z,5.60
2022-11-07T22:29:04.961Z,5.70
2022-11-07T22:31:32.681Z,5.60
2022-11-07T22:34:01.034Z,5.60
2022-11-07T22:36:29.045Z,5.50
2022-11-07T22:38:58.092Z,5.50
2022-11-07T22:41:27.765Z,5.50
2022-11-07T22:43:56.175Z,5.40
2022-11-07T22:46:29.579Z,5.30
2022-11-07T22:48:58.209Z,5.30
2022-11-07T22:51:35.664Z,5.30
2022-11-07T22:54:06.181Z,5.30
2022-11-07T22:56:36.441Z,5.30
2022-11-07T22:59:05.193Z,5.40
2022-11-07T23:01:35.471Z,5.30
2022-11-07T23:04:03.277Z,5.30
2022-11-07T23:06:30.867Z,5.20
2022-11-07T23:08:59.446Z,5.20
2022-11-07T23:11:47.585Z,5.20
2022-11-07T23:14:18.622Z,5.30
2022-11-07T23:16:49.274Z,5.30
2022-11-07T23:19:20.120Z,5.30
2022-11-07T23:21:48.096Z,5.40
2022-11-07T23:24:15.735Z,5.40
2022-11-07T23:26:43.189Z,5.40
2022-11-07T23:29:16.717Z,5.40
2022-11-07T23:31:47.144Z,5.30
2022-11-07T23:34:15.601Z,5.30
2022-11-07T23:36:47.741Z,5.20
2022-11-07T23:39:21.911Z,5.10
2022-11-07T23:41:49.394Z,5.00
2022-11-07T23:44:16.912Z,4.90
2022-11-07T23:47:03.841Z,4.90
2022-11-07T23:49:50.069Z,4.90
2022-11-07T23:52:18.713Z,4.90
2022-11-07T23:55:05.026Z,4.90
2022-11-07T23:57:57.119Z,5.00
